Time;durP1;ratioP1;P1;durP2;ratioP2;P2;SDS_P1;SDS_P2;PMS_P1;PMS_P2;Temp;Humidity;BMP_temperature;BMP_pressure;BME280_temperature;BME280_humidity;BME280_pressure;Samples;Min_cycle;Max_cycle;Signal;HPM_P1;HPM_P2
2023/06/03 00:00:43;;;;;;;16.50;10.10;;;;;;;16.73;100.00;100669.63;107194;1282;59073;-85
2023/06/03 00:03:13;;;;;;;19.80;10.00;;;;;;;16.69;100.00;100670.42;107178;1283;59096;-85
2023/06/03 00:05:41;;;;;;;20.40;12.10;;;;;;;16.67;100.00;100670.28;106721;1283;72395;-86
2023/06/03 00:08:07;;;;;;;22.30;12.80;;;;;;;16.66;100.00;100674.66;107132;1281;61465;-87
2023/06/03 00:10:32;;;;;;;22.20;12.40;;;;;;;16.65;100.00;100676.70;106866;1281;59451;-86
2023/06/03 00:12:58;;;;;;;18.40;10.90;;;;;;;16.62;100.00;100670.98;107225;1282;59108;-85
2023/06/03 00:15:23;;;;;;;19.20;11.10;;;;;;;16.54;100.00;100663.64;107181;1282;59073;-85
2023/06/03 00:17:49;;;;;;;15.00;9.70;;;;;;;16.55;100.00;100660.70;107188;1281;58986;-86
2023/06/03 00:20:14;;;;;;;14.50;9.60;;;;;;;16.56;100.00;100655.73;106872;1282;59114;-85
2023/06/03 00:22:40;;;;;;;17.50;9.30;;;;;;;16.55;100.00;100649.31;107188;1282;58991;-85
2023/06/03 00:25:07;;;;;;;15.50;10.00;;;;;;;16.49;100.00;100643.61;106904;1283;59141;-86
2023/06/03 00:27:37;;;;;;;14.90;9.60;;;;;;;16.45;100.00;100644.05;107156;1282;60032;-86
2023/06/03 00:30:05;;;;;;;18.20;10.30;;;;;;;16.45;100.00;100641.45;107134;1282;61821;-85
2023/06/03 00:32:31;;;;;;;16.90;9.70;;;;;;;16.44;100.00;100637.00;107167;1282;60002;-87
2023/06/03 00:34:56;;;;;;;21.40;10.30;;;;;;;16.42;100.00;100639.48;106807;1283;59238;-85
2023/06/03 00:37:22;;;;;;;19.70;11.10;;;;;;;16.38;100.00;100636.13;107210;1282;59061;-86
2023/06/03 00:39:47;;;;;;;16.80;10.90;;;;;;;16.37;100.00;100636.40;107157;1282;59510;-86
2023/06/03 00:42:13;;;;;;;23.50;11.60;;;;;;;16.34;100.00;100641.77;107233;1281;59287;-86
2023/06/03 00:44:38;;;;;;;21.30;12.80;;;;;;;16.32;100.00;100658.41;107076;1282;73358;-86
2023/06/03 00:47:05;;;;;;;23.60;12.00;;;;;;;16.29;100.00;100656.22;107194;1282;59174;-85
2023/06/03 00:49:31;;;;;;;22.90;12.90;;;;;;;16.28;100.00;100653.07;107172;1282;59058;-85
2023/06/03 00:51:58;;;;;;;24.90;12.10;;;;;;;16.29;100.00;100653.78;107170;1281;59115;-86
2023/06/03 00:54:24;;;;;;;17.20;12.00;;;;;;;16.27;100.00;100647.33;106698;1281;59316;-86
2023/06/03 00:56:51;;;;;;;19.90;12.70;;;;;;;16.26;100.00;100639.14;107197;1282;59190;-85
2023/06/03 00:59:17;;;;;;;19.90;12.80;;;;;;;16.24;100.00;100634.92;107167;1282;59010;-86
2023/06/03 01:01:44;;;;;;;19.80;11.90;;;;;;;16.24;100.00;100633.52;107161;1282;59288;-85
2023/06/03 01:04:11;;;;;;;16.90;11.40;;;;;;;16.24;100.00;100635.27;107143;1282;59018;-86
2023/06/03 01:06:49;;;;;;;20.30;12.60;;;;;;;16.23;100.00;100636.18;107166;1282;59470;-85
2023/06/03 01:09:40;;;;;;;23.80;13.60;;;;;;;16.15;100.00;100634.41;107157;1282;75542;-84
2023/06/03 01:12:29;;;;;;;22.00;13.80;;;;;;;16.13;100.00;100629.07;107159;1282;73565;-85
2023/06/03 01:14:59;;;;;;;23.20;12.60;;;;;;;16.10;100.00;100623.52;107184;1282;73576;-85
2023/06/03 01:17:28;;;;;;;22.60;13.00;;;;;;;16.09;100.00;100628.08;106850;1282;62850;-85
2023/06/03 01:19:56;;;;;;;23.20;13.30;;;;;;;16.07;100.00;100629.38;107067;1283;60094;-85
2023/06/03 01:22:26;;;;;;;20.70;12.60;;;;;;;16.02;100.00;100625.48;107168;1282;75385;-85
2023/06/03 01:25:02;;;;;;;24.10;12.90;;;;;;;16.02;100.00;100622.17;106964;1283;73671;-85
2023/06/03 01:27:28;;;;;;;17.50;11.60;;;;;;;16.01;100.00;100620.50;107179;1282;71941;-85
2023/06/03 01:29:54;;;;;;;24.80;14.80;;;;;;;16.00;100.00;100626.05;107233;1282;58991;-84
2023/06/03 01:32:20;;;;;;;20.50;12.80;;;;;;;16.02;100.00;100623.86;107180;1282;59066;-85
2023/06/03 01:34:46;;;;;;;24.10;12.80;;;;;;;16.03;100.00;100630.03;107154;1282;59057;-85
2023/06/03 01:37:12;;;;;;;27.80;14.10;;;;;;;16.02;100.00;100625.75;107212;1282;59273;-85
2023/06/03 01:39:40;;;;;;;25.60;14.20;;;;;;;16.02;100.00;100623.48;107178;1282;59037;-85
2023/06/03 01:42:08;;;;;;;21.20;13.50;;;;;;;16.02;100.00;100621.30;107135;1282;58982;-86
2023/06/03 01:44:34;;;;;;;29.70;15.70;;;;;;;16.00;100.00;100622.15;106514;1283;60886;-85
2023/06/03 01:50:22;;;;;;;23.60;13.50;;;;;;;15.99;100.00;100624.73;107223;1282;71947;-86
2023/06/03 01:52:48;;;;;;;24.20;14.00;;;;;;;16.01;100.00;100620.13;107174;1282;73546;-87
2023/06/03 01:55:13;;;;;;;24.10;14.20;;;;;;;16.05;100.00;100626.69;107191;1282;59109;-84
2023/06/03 01:57:39;;;;;;;26.50;15.70;;;;;;;16.09;100.00;100631.56;107081;1283;59109;-84
2023/06/03 02:00:09;;;;;;;26.50;16.00;;;;;;;16.08;100.00;100630.34;107107;1281;59057;-84
2023/06/03 02:02:35;;;;;;;30.40;16.00;;;;;;;16.12;100.00;100628.92;107237;1281;74135;-85
2023/06/03 02:05:01;;;;;;;29.60;16.00;;;;;;;16.11;100.00;100627.41;107152;1282;59055;-83
2023/06/03 02:07:26;;;;;;;26.00;16.70;;;;;;;16.14;100.00;100626.88;107181;1281;58993;-84
2023/06/03 02:09:54;;;;;;;33.30;17.40;;;;;;;16.18;100.00;100627.18;107186;1282;59107;-84
2023/06/03 02:12:19;;;;;;;30.70;18.10;;;;;;;16.23;100.00;100627.71;107162;1282;59001;-85
2023/06/03 02:14:46;;;;;;;31.70;17.90;;;;;;;16.27;100.00;100624.98;107200;1282;59128;-84
2023/06/03 02:17:11;;;;;;;34.10;20.20;;;;;;;16.35;100.00;100625.63;107063;1283;59012;-85
2023/06/03 02:19:38;;;;;;;35.80;18.40;;;;;;;16.44;100.00;100628.51;107205;1282;59120;-85
2023/06/03 02:22:05;;;;;;;36.10;19.10;;;;;;;16.48;100.00;100631.59;106851;1281;59090;-85
2023/06/03 02:24:31;;;;;;;36.10;17.80;;;;;;;16.58;100.00;100632.45;107159;1282;59016;-86
2023/06/03 02:27:01;;;;;;;31.40;16.30;;;;;;;16.67;100.00;100631.55;107198;1282;59412;-86
2023/06/03 02:29:27;;;;;;;33.70;17.90;;;;;;;16.73;100.00;100639.70;107134;1282;72443;-86
2023/06/03 02:31:54;;;;;;;37.50;20.10;;;;;;;16.80;100.00;100639.60;106677;1285;59499;-86
2023/06/03 02:34:21;;;;;;;41.90;21.60;;;;;;;16.92;100.00;100637.09;106670;1285;59063;-86
2023/06/03 02:36:47;;;;;;;35.00;18.40;;;;;;;17.06;100.00;100639.27;106476;1285;314424;-86
2023/06/03 02:39:14;;;;;;;36.50;18.80;;;;;;;17.19;100.00;100641.03;106308;1285;59030;-86
2023/06/03 02:41:41;;;;;;;33.00;18.70;;;;;;;17.36;100.00;100644.25;106670;1285;59853;-86
2023/06/03 02:44:07;;;;;;;34.30;18.10;;;;;;;17.54;100.00;100639.40;106272;1285;63020;-86
2023/06/03 02:46:33;;;;;;;31.90;17.30;;;;;;;17.79;100.00;100640.55;106672;1285;59254;-87
2023/06/03 02:49:03;;;;;;;29.80;16.30;;;;;;;18.11;100.00;100637.27;106645;1285;59118;-87
2023/06/03 02:51:29;;;;;;;32.40;15.70;;;;;;;18.51;100.00;100637.53;106673;1287;74730;-87
2023/06/03 02:53:54;;;;;;;30.20;14.70;;;;;;;18.79;100.00;100634.34;106410;1285;59163;-87
2023/06/03 02:56:22;;;;;;;30.10;14.60;;;;;;;18.94;100.00;100635.23;106539;1285;59169;-86
2023/06/03 02:58:48;;;;;;;28.20;14.50;;;;;;;19.04;100.00;100639.59;106679;1286;59105;-86
2023/06/03 03:01:14;;;;;;;25.70;13.80;;;;;;;19.16;100.00;100636.98;106368;1285;59080;-86
2023/06/03 03:03:40;;;;;;;28.10;13.90;;;;;;;19.30;100.00;100635.98;106655;1282;59888;-87
2023/06/03 03:06:12;;;;;;;24.10;13.00;;;;;;;19.32;100.00;100634.05;107182;1282;59045;-86
2023/06/03 03:08:38;;;;;;;20.90;11.70;;;;;;;19.40;100.00;100630.77;107132;1285;61478;-87
2023/06/03 03:14:31;;;;;;;22.60;12.30;;;;;;;19.95;100.00;100630.27;107199;1281;73423;-85
2023/06/03 03:16:56;;;;;;;24.60;11.20;;;;;;;20.42;100.00;100629.38;107198;1282;59137;-86
2023/06/03 03:19:22;;;;;;;19.90;10.50;;;;;;;20.98;100.00;100631.27;107159;1281;59119;-86
2023/06/03 03:21:47;;;;;;;20.80;9.20;;;;;;;21.68;100.00;100625.12;107173;1282;59022;-86
2023/06/03 03:24:14;;;;;;;19.60;9.00;;;;;;;22.33;100.00;100621.71;107244;1282;59149;-86
2023/06/03 03:26:40;;;;;;;17.20;8.70;;;;;;;23.02;100.00;100623.82;107161;1281;74881;-86
2023/06/03 03:29:06;;;;;;;16.40;8.40;;;;;;;23.68;100.00;100627.30;106776;1283;59133;-86
2023/06/03 03:31:32;;;;;;;14.50;7.90;;;;;;;24.12;100.00;100624.27;107159;1282;58924;-87
2023/06/03 03:33:59;;;;;;;18.50;8.50;;;;;;;24.72;100.00;100624.79;107160;1282;59238;-86
2023/06/03 03:36:28;;;;;;;16.90;8.10;;;;;;;25.33;100.00;100630.14;107150;1282;59019;-87
2023/06/03 03:39:03;;;;;;;18.70;8.30;;;;;;;25.93;100.00;100631.08;107157;1282;74390;-87
2023/06/03 03:41:29;;;;;;;16.60;7.70;;;;;;;26.49;100.00;100628.94;107163;1281;72356;-87
2023/06/03 03:43:56;;;;;;;20.10;8.30;;;;;;;26.81;100.00;100629.99;107190;1281;59944;-87
2023/06/03 03:46:21;;;;;;;15.10;7.50;;;;;;;27.04;100.00;100631.72;106832;1281;59112;-86
2023/06/03 03:48:48;;;;;;;15.40;7.20;;;;;;;27.54;100.00;100631.84;107179;1282;59117;-87
2023/06/03 03:51:14;;;;;;;15.50;8.00;;;;;;;27.90;100.00;100635.67;107084;1282;59103;-87
2023/06/03 03:53:47;;;;;;;16.10;8.00;;;;;;;28.22;100.00;100629.95;107156;1282;59450;-87
2023/06/03 03:56:21;;;;;;;22.70;8.60;;;;;;;28.48;100.00;100632.63;106736;1287;61102;-87
2023/06/03 03:58:48;;;;;;;20.10;8.20;;;;;;;28.91;97.74;100633.41;107192;1281;61443;-87
2023/06/03 04:01:17;;;;;;;16.30;7.90;;;;;;;29.23;95.31;100635.73;107031;1281;75487;-87
2023/06/03 04:04:05;;;;;;;13.60;7.70;;;;;;;29.71;94.71;100640.08;106830;1285;73161;-86
2023/06/03 04:06:37;;;;;;;16.50;7.00;;;;;;;30.20;90.42;100639.27;106810;1285;72906;-88
2023/06/03 04:09:04;;;;;;;17.70;7.30;;;;;;;30.42;84.37;100635.52;106777;1285;61119;-87
2023/06/03 04:11:36;;;;;;;16.60;7.20;;;;;;;30.76;81.70;100633.18;106807;1285;61040;-88
2023/06/03 04:14:03;;;;;;;16.30;6.10;;;;;;;31.26;79.54;100632.78;106407;1286;73337;-88
2023/06/03 04:16:44;;;;;;;16.00;6.40;;;;;;;31.77;75.33;100638.07;106423;1286;73413;-89
2023/06/03 04:19:20;;;;;;;16.70;6.40;;;;;;;32.15;72.07;100638.33;106824;1285;73486;-89
2023/06/03 04:21:46;;;;;;;20.50;7.10;;;;;;;32.37;70.17;100639.72;106752;1285;60159;-88
2023/06/03 04:27:33;;;;;;;12.00;6.00;;;;;;;32.98;65.35;100641.45;106811;1285;73807;-91
2023/06/03 04:30:00;;;;;;;15.00;6.30;;;;;;;33.17;64.61;100645.13;106860;1285;59158;-89
2023/06/03 04:32:26;;;;;;;12.10;6.00;;;;;;;33.56;62.20;100644.89;106795;1285;73487;-86
2023/06/03 04:34:55;;;;;;;20.20;6.60;;;;;;;33.51;60.64;100652.20;106758;1285;59054;-89
2023/06/03 04:37:35;;;;;;;12.90;5.80;;;;;;;33.47;59.25;100653.91;106823;1285;61171;-88
2023/06/03 04:40:04;;;;;;;14.50;6.20;;;;;;;33.49;58.71;100657.57;106418;1288;75353;-91
2023/06/03 04:42:30;;;;;;;12.00;6.00;;;;;;;33.62;57.60;100652.89;106724;1285;73688;-89
2023/06/03 04:44:58;;;;;;;16.80;5.90;;;;;;;33.69;56.27;100655.93;106858;1285;73520;-89
2023/06/03 04:47:28;;;;;;;11.60;5.00;;;;;;;34.00;56.00;100660.81;106803;1285;60203;-89
2023/06/03 04:49:55;;;;;;;15.60;5.60;;;;;;;34.45;54.67;100666.86;106849;1285;59846;-88
2023/06/03 04:52:22;;;;;;;13.60;5.40;;;;;;;34.64;53.49;100674.20;106820;1285;59150;-88
2023/06/03 04:54:47;;;;;;;12.20;4.80;;;;;;;34.78;52.63;100675.59;106849;1285;74676;-88
2023/06/03 04:57:13;;;;;;;15.90;5.80;;;;;;;35.18;52.18;100678.45;106805;1285;59146;-88
2023/06/03 04:59:38;;;;;;;12.90;5.50;;;;;;;35.63;49.98;100675.33;106778;1285;59042;-89
2023/06/03 05:05:26;;;;;;;9.40;4.80;;;;;;;36.50;48.76;100681.86;106824;1285;74457;-89
2023/06/03 05:07:52;;;;;;;21.10;5.20;;;;;;;36.73;48.10;100679.22;106742;1285;59276;-87
2023/06/03 05:10:19;;;;;;;13.10;5.10;;;;;;;37.08;47.53;100680.64;106950;1282;59517;-90
2023/06/03 05:12:49;;;;;;;17.50;4.60;;;;;;;37.08;45.56;100681.67;107032;1283;59023;-87
2023/06/03 05:15:14;;;;;;;10.20;4.40;;;;;;;36.96;44.89;100685.27;106841;1285;59730;-88
2023/06/03 05:17:40;;;;;;;14.40;5.00;;;;;;;37.03;44.22;100682.20;106820;1285;59133;-88
2023/06/03 05:20:10;;;;;;;12.80;4.70;;;;;;;37.04;43.37;100680.42;106781;1285;59302;-91
2023/06/03 05:22:36;;;;;;;8.60;4.30;;;;;;;37.39;43.20;100678.54;106370;1286;72645;-88
2023/06/03 05:25:05;;;;;;;8.30;4.70;;;;;;;38.01;42.42;100680.30;106410;1286;59036;-88
2023/06/03 05:27:51;;;;;;;10.40;5.40;;;;;;;38.24;41.53;100683.05;106809;1285;59882;-85
2023/06/03 05:30:16;;;;;;;9.20;5.00;;;;;;;38.24;41.24;100686.84;106532;1288;75199;-87
2023/06/03 05:32:42;;;;;;;15.60;4.50;;;;;;;38.31;40.62;100688.54;106533;1288;59579;-87
2023/06/03 05:35:09;;;;;;;12.70;4.60;;;;;;;38.37;40.04;100693.67;106271;1289;59133;-88
2023/06/03 05:37:35;;;;;;;12.20;4.30;;;;;;;38.31;39.66;100693.84;106469;1287;59320;-88
2023/06/03 05:40:01;;;;;;;10.70;4.80;;;;;;;38.32;39.34;100688.02;106376;1288;59296;-87
2023/06/03 05:42:27;;;;;;;12.50;5.20;;;;;;;38.31;39.19;100687.50;106517;1288;59150;-86
2023/06/03 05:44:52;;;;;;;14.20;5.30;;;;;;;38.47;38.90;100688.23;106488;1288;59143;-86
2023/06/03 05:50:51;;;;;;;16.00;6.30;;;;;;;39.36;37.58;100684.75;106823;1285;59117;-88
2023/06/03 05:53:21;;;;;;;12.30;5.60;;;;;;;39.33;36.71;100687.37;106833;1285;75226;-87
2023/06/03 05:55:48;;;;;;;8.90;5.40;;;;;;;39.51;36.28;100693.56;106824;1285;74381;-86
2023/06/03 05:58:13;;;;;;;13.40;6.10;;;;;;;39.62;36.32;100691.31;106791;1285;59450;-87
2023/06/03 06:00:39;;;;;;;14.90;5.80;;;;;;;39.57;35.59;100690.63;106919;1285;58999;-86
2023/06/03 06:03:04;;;;;;;12.20;6.00;;;;;;;39.64;35.38;100691.73;107204;1281;59053;-87
2023/06/03 06:05:30;;;;;;;12.20;6.20;;;;;;;39.84;35.14;100690.70;107200;1282;59123;-87
2023/06/03 06:07:56;;;;;;;23.80;8.20;;;;;;;39.90;34.56;100688.12;106887;1282;59141;-86
2023/06/03 06:10:21;;;;;;;20.90;8.10;;;;;;;40.12;34.85;100693.34;107040;1282;61151;-88
2023/06/03 06:12:47;;;;;;;14.60;7.20;;;;;;;40.52;34.47;100693.31;107197;1281;59143;-86
2023/06/03 06:15:13;;;;;;;12.40;6.70;;;;;;;40.59;33.74;100697.96;107197;1282;59049;-88
2023/06/03 06:17:38;;;;;;;11.80;7.20;;;;;;;40.55;33.84;100694.34;107037;1283;59245;-87
2023/06/03 06:20:06;;;;;;;18.20;7.00;;;;;;;40.77;33.57;100694.58;107013;1282;59401;-84
2023/06/03 06:22:32;;;;;;;18.30;9.20;;;;;;;40.89;33.11;100696.27;107065;1283;59231;-88
2023/06/03 06:24:58;;;;;;;15.30;7.50;;;;;;;40.82;32.50;100702.13;107192;1281;59087;-87
2023/06/03 06:27:24;;;;;;;20.10;7.50;;;;;;;40.79;32.58;100697.59;107037;1282;59036;-86
2023/06/03 06:29:51;;;;;;;13.80;7.50;;;;;;;40.99;32.61;100689.67;107218;1282;59382;-86
2023/06/03 06:32:25;;;;;;;10.80;7.30;;;;;;;41.24;31.99;100692.00;107137;1281;61041;-87
2023/06/03 06:34:54;;;;;;;17.40;6.40;;;;;;;41.39;31.81;100691.64;107191;1282;60353;-86
2023/06/03 06:37:21;;;;;;;9.80;6.20;;;;;;;41.57;31.32;100692.08;107177;1282;75203;-88
2023/06/03 06:39:51;;;;;;;11.80;6.80;;;;;;;41.54;30.95;100688.67;106784;1283;72535;-87
2023/06/03 06:42:31;;;;;;;13.30;6.50;;;;;;;41.48;31.05;100690.46;107194;1282;73313;-86
2023/06/03 06:44:57;;;;;;;17.60;6.70;;;;;;;41.67;31.07;100691.17;107151;1282;60152;-89
2023/06/03 06:47:27;;;;;;;14.10;6.40;;;;;;;41.63;30.56;100690.63;107136;1282;59137;-87
2023/06/03 06:49:56;;;;;;;16.60;6.20;;;;;;;41.61;30.53;100685.79;107160;1282;75461;-87
2023/06/03 06:52:25;;;;;;;12.60;6.20;;;;;;;41.62;30.35;100679.77;106830;1282;73493;-88
2023/06/03 06:54:54;;;;;;;10.80;5.90;;;;;;;41.79;29.95;100680.98;107150;1282;73391;-88
2023/06/03 06:57:24;;;;;;;12.30;5.60;;;;;;;41.97;29.34;100676.85;107178;1281;59947;-86
2023/06/03 06:59:53;;;;;;;13.10;5.40;;;;;;;42.34;29.24;100673.49;106809;1285;61146;-87
2023/06/03 07:02:20;;;;;;;15.30;5.40;;;;;;;42.73;28.23;100672.73;106834;1285;75327;-87
2023/06/03 07:08:07;;;;;;;7.60;5.70;;;;;;;43.16;26.17;100675.99;106801;1285;72412;-87
2023/06/03 07:10:33;;;;;;;12.80;5.50;;;;;;;43.39;25.31;100672.46;106808;1285;59276;-87
2023/06/03 07:12:59;;;;;;;10.80;4.80;;;;;;;43.60;25.15;100677.89;106842;1285;59341;-87
2023/06/03 07:15:24;;;;;;;9.40;5.10;;;;;;;43.87;25.17;100674.83;106720;1286;59435;-87
2023/06/03 07:17:54;;;;;;;8.00;5.20;;;;;;;44.08;25.71;100677.31;106819;1285;59220;-86
2023/06/03 07:20:25;;;;;;;9.10;5.00;;;;;;;44.18;25.16;100677.89;106805;1285;72656;-86
2023/06/03 07:22:50;;;;;;;10.20;5.80;;;;;;;44.05;24.70;100679.84;106570;1286;60924;-86
2023/06/03 07:25:33;;;;;;;12.00;5.40;;;;;;;43.95;24.52;100677.25;106858;1285;59173;-86
2023/06/03 07:27:59;;;;;;;9.40;5.70;;;;;;;44.21;24.65;100678.80;106640;1285;74564;-89
2023/06/03 07:30:26;;;;;;;10.20;5.60;;;;;;;44.36;24.82;100677.49;106648;1283;59072;-88
2023/06/03 07:32:59;;;;;;;10.90;5.60;;;;;;;44.33;23.91;100673.89;107190;1282;59231;-88
2023/06/03 07:35:28;;;;;;;11.10;6.10;;;;;;;44.34;24.17;100674.10;107188;1282;59060;-88
2023/06/03 07:37:56;;;;;;;9.60;5.90;;;;;;;44.47;23.44;100674.16;106893;1283;59005;-90
2023/06/03 07:44:15;;;;;;;14.60;6.10;;;;;;;44.23;23.59;100672.54;102848;1297;615284;-88
2023/06/03 07:50:26;;;;;;;7.50;5.20;;;;;;;43.22;23.37;100677.10;102919;1288;616171;-90
2023/06/03 07:53:03;;;;;;;9.80;4.80;;;;;;;43.08;24.18;100673.23;103346;1288;60358;-90
2023/06/03 07:55:44;;;;;;;9.60;4.60;;;;;;;43.50;23.89;100669.45;103234;1291;60378;-89
2023/06/03 07:58:45;;;;;;;7.90;4.90;;;;;;;43.60;23.69;100673.88;102772;1290;601040;-88
2023/06/03 08:01:11;;;;;;;14.60;5.70;;;;;;;43.84;23.95;100677.04;102907;1292;60319;-89
2023/06/03 08:03:37;;;;;;;10.40;4.80;;;;;;;43.96;23.17;100676.79;103122;1297;60493;-88
2023/06/03 08:06:07;;;;;;;8.30;4.60;;;;;;;43.88;23.36;100673.71;103166;1291;60339;-88
2023/06/03 08:08:42;;;;;;;8.00;4.80;;;;;;;43.87;23.16;100673.63;102843;1297;74979;-87
2023/06/03 08:11:08;;;;;;;9.00;4.60;;;;;;;44.07;23.88;100672.54;102275;1301;401943;-90
2023/06/03 08:17:33;;;;;;;13.20;4.80;;;;;;;43.92;23.76;100681.69;103595;1284;599450;-86
2023/06/03 08:20:05;;;;;;;15.30;4.90;;;;;;;44.20;23.60;100683.14;103567;1292;61863;-86
2023/06/03 08:22:44;;;;;;;9.60;4.50;;;;;;;43.78;22.91;100684.57;103626;1288;60655;-86
2023/06/03 08:25:10;;;;;;;8.40;4.40;;;;;;;43.35;23.01;100681.59;103471;1289;73847;-87
2023/06/03 08:27:37;;;;;;;7.50;4.30;;;;;;;43.37;23.28;100684.73;103429;1286;60341;-82
2023/06/03 08:30:04;;;;;;;10.00;4.90;;;;;;;43.62;23.16;100683.67;103455;1289;392068;-83
2023/06/03 08:32:33;;;;;;;10.50;4.30;;;;;;;43.85;23.36;100684.74;103714;1288;60273;-81
2023/06/03 08:34:59;;;;;;;13.10;4.80;;;;;;;43.88;22.88;100685.95;103721;1289;60409;-81
2023/06/03 08:37:29;;;;;;;9.70;5.00;;;;;;;43.89;23.00;100680.39;103614;1288;60794;-81
2023/06/03 08:39:55;;;;;;;12.00;4.50;;;;;;;43.96;23.23;100682.43;103699;1288;74348;-81
2023/06/03 08:42:30;;;;;;;9.00;4.20;;;;;;;43.88;23.10;100684.60;103807;1288;60800;-82
2023/06/03 08:45:04;;;;;;;6.40;3.80;;;;;;;43.48;22.90;100687.94;103663;1283;60758;-81
2023/06/03 08:47:38;;;;;;;12.70;4.60;;;;;;;43.30;23.12;100688.09;103910;1286;61674;-81
2023/06/03 08:50:06;;;;;;;11.50;4.60;;;;;;;43.06;22.90;100692.64;107063;1283;72882;-81
2023/06/03 08:52:37;;;;;;;13.90;5.00;;;;;;;42.58;23.18;100690.06;107080;1282;74728;-81
2023/06/03 08:55:06;;;;;;;10.20;4.50;;;;;;;42.50;23.57;100692.66;107070;1282;72917;-80
2023/06/03 08:57:34;;;;;;;14.80;4.50;;;;;;;42.59;23.64;100691.73;107087;1282;60269;-81
2023/06/03 09:00:01;;;;;;;11.30;5.00;;;;;;;42.24;23.77;100695.17;107073;1283;60090;-81
2023/06/03 09:02:29;;;;;;;13.10;5.00;;;;;;;42.13;24.68;100696.25;107000;1288;72862;-82
2023/06/03 09:04:56;;;;;;;11.80;4.60;;;;;;;42.32;24.50;100696.47;106860;1283;74777;-82
2023/06/03 09:07:23;;;;;;;12.20;5.20;;;;;;;42.53;24.27;100693.81;107052;1283;58255;-81
2023/06/03 09:09:53;;;;;;;9.90;5.40;;;;;;;42.33;23.68;100695.70;107086;1283;61390;-81
2023/06/03 09:12:19;;;;;;;10.70;4.10;;;;;;;42.13;23.90;100692.94;106560;1288;59755;-81
2023/06/03 09:14:46;;;;;;;7.90;4.30;;;;;;;41.93;23.63;100696.61;106880;1283;58195;-80
2023/06/03 09:17:12;;;;;;;11.60;4.20;;;;;;;41.85;23.99;100697.84;107115;1283;74389;-81
2023/06/03 09:19:39;;;;;;;13.60;4.30;;;;;;;41.83;24.01;100699.23;107125;1283;58178;-81
2023/06/03 09:22:05;;;;;;;13.90;4.90;;;;;;;41.91;23.46;100701.86;107070;1283;58148;-80
2023/06/03 09:24:31;;;;;;;15.20;5.10;;;;;;;42.05;23.34;100697.90;107103;1287;58083;-80
2023/06/03 09:26:57;;;;;;;12.20;4.90;;;;;;;41.96;23.12;100699.27;107092;1283;58126;-80
2023/06/03 09:29:23;;;;;;;9.50;5.00;;;;;;;41.75;23.51;100704.71;107103;1283;58195;-80
2023/06/03 09:31:49;;;;;;;23.30;5.00;;;;;;;41.42;23.46;100701.64;106656;1283;58324;-80
2023/06/03 09:34:16;;;;;;;16.50;5.10;;;;;;;41.22;24.06;100702.91;107093;1283;58229;-79
2023/06/03 09:36:46;;;;;;;15.10;5.50;;;;;;;40.94;24.72;100702.52;107080;1283;58050;-78
2023/06/03 09:39:16;;;;;;;10.50;4.90;;;;;;;40.68;24.34;100702.80;107065;1283;73852;-78
2023/06/03 09:41:42;;;;;;;11.00;4.50;;;;;;;40.27;24.37;100700.67;107106;1283;73826;-78
2023/06/03 09:44:10;;;;;;;13.50;4.90;;;;;;;39.80;24.98;100704.48;107059;1283;58095;-78
2023/06/03 09:46:36;;;;;;;13.50;5.40;;;;;;;39.60;25.63;100707.27;107058;1283;60361;-78
2023/06/03 09:49:10;;;;;;;16.10;5.10;;;;;;;39.41;25.87;100701.83;107086;1283;58113;-78
2023/06/03 09:51:43;;;;;;;18.80;5.70;;;;;;;39.33;26.13;100706.38;107084;1283;73749;-78
2023/06/03 09:54:24;;;;;;;19.70;5.80;;;;;;;39.29;25.86;100705.95;107092;1283;74370;-78
2023/06/03 09:56:51;;;;;;;14.10;5.80;;;;;;;38.69;25.54;100700.27;107045;1283;73664;-78
2023/06/03 09:59:29;;;;;;;17.10;5.60;;;;;;;38.30;26.41;100703.30;107016;1283;58100;-79
2023/06/03 10:01:57;;;;;;;9.90;5.00;;;;;;;38.21;26.50;100702.52;107065;1283;60093;-79
2023/06/03 10:04:36;;;;;;;13.20;5.00;;;;;;;38.09;27.01;100698.95;107088;1283;73876;-79
2023/06/03 10:07:18;;;;;;;10.60;4.30;;;;;;;38.14;27.87;100700.48;107082;1283;74589;-79
2023/06/03 10:09:45;;;;;;;10.30;4.10;;;;;;;38.16;27.13;100702.04;106729;1283;72158;-79
2023/06/03 10:12:29;;;;;;;8.40;4.50;;;;;;;37.98;27.15;100703.55;107049;1283;61037;-81
2023/06/03 10:14:58;;;;;;;8.60;4.20;;;;;;;37.87;27.09;100700.63;107043;1283;60198;-80
2023/06/03 10:17:24;;;;;;;11.10;4.10;;;;;;;37.69;27.06;100702.01;107080;1282;73832;-81
2023/06/03 10:19:50;;;;;;;5.60;3.50;;;;;;;37.47;27.41;100700.60;107095;1283;58432;-80
2023/06/03 10:22:18;;;;;;;4.90;2.90;;;;;;;37.20;26.99;100701.94;107061;1283;58187;-81
2023/06/03 10:24:49;;;;;;;9.70;2.70;;;;;;;36.89;26.88;100702.70;107030;1283;60457;-80
2023/06/03 10:27:16;;;;;;;15.70;2.90;;;;;;;36.90;27.76;100704.17;107017;1283;60107;-79
2023/06/03 10:29:43;;;;;;;6.00;2.90;;;;;;;37.15;27.99;100698.85;107055;1283;72331;-79
2023/06/03 10:32:12;;;;;;;9.30;3.30;;;;;;;37.33;27.17;100699.42;106761;1283;58147;-79
2023/06/03 10:34:43;;;;;;;15.00;6.10;;;;;;;37.41;27.69;100702.67;107060;1283;72485;-79
2023/06/03 10:37:09;;;;;;;13.30;5.00;;;;;;;37.38;27.58;100701.29;107049;1283;61534;-80
2023/06/03 10:39:37;;;;;;;11.30;4.00;;;;;;;37.01;27.49;100702.80;107014;1283;58191;-79
2023/06/03 10:42:05;;;;;;;8.60;3.20;;;;;;;36.59;27.61;100703.06;107113;1283;73826;-79
2023/06/03 10:44:32;;;;;;;5.50;3.20;;;;;;;36.51;27.98;100701.23;107103;1283;73387;-79
2023/06/03 10:47:11;;;;;;;11.10;3.20;;;;;;;36.55;27.90;100697.63;106621;1283;71400;-81
2023/06/03 10:49:59;;;;;;;9.50;3.40;;;;;;;36.48;28.27;100699.38;106317;1288;58798;-81
2023/06/03 10:52:34;;;;;;;8.70;3.00;;;;;;;36.16;28.74;100701.84;106330;1291;60171;-79
2023/06/03 10:55:37;;;;;;;8.20;3.30;;;;;;;35.87;29.26;100706.04;106341;1291;74141;-79
2023/06/03 10:58:14;;;;;;;10.80;2.90;;;;;;;36.06;29.71;100698.85;105808;1297;73294;-78
2023/06/03 11:01:03;;;;;;;12.00;3.00;;;;;;;36.28;29.44;100698.69;105725;1297;72606;-77
2023/06/03 11:03:30;;;;;;;6.70;2.70;;;;;;;36.46;28.00;100702.48;105739;1297;59981;-77
2023/06/03 11:06:16;;;;;;;13.80;3.40;;;;;;;36.44;28.13;100708.45;105776;1298;61084;-78
2023/06/03 11:09:16;;;;;;;20.10;3.30;;;;;;;36.24;30.72;100721.96;105422;1303;73862;-79
2023/06/03 11:11:41;;;;;;;8.50;3.10;;;;;;;35.62;32.43;100733.51;105193;1303;74325;-79
2023/06/03 11:14:09;;;;;;;8.50;3.40;;;;;;;35.43;33.46;100736.08;105348;1303;58205;-78
2023/06/03 11:16:56;;;;;;;9.20;3.60;;;;;;;35.33;34.18;100747.63;105351;1303;58721;-78
2023/06/03 11:19:31;;;;;;;6.90;2.90;;;;;;;35.02;34.36;100740.77;105361;1303;59784;-77
2023/06/03 11:22:04;;;;;;;7.60;3.40;;;;;;;34.77;34.98;100746.56;105378;1303;74055;-77
2023/06/03 11:24:38;;;;;;;10.70;3.50;;;;;;;34.46;35.36;100750.91;105425;1303;73491;-77
2023/06/03 11:27:10;;;;;;;8.20;3.40;;;;;;;34.32;35.85;100749.09;105398;1303;73804;-77
2023/06/03 11:29:51;;;;;;;7.60;3.40;;;;;;;34.26;36.34;100751.95;105437;1300;61076;-77
2023/06/03 11:32:38;;;;;;;9.30;3.00;;;;;;;34.18;36.59;100757.65;105649;1297;60604;-77
2023/06/03 11:35:04;;;;;;;10.40;3.80;;;;;;;33.66;36.41;100757.30;106090;1291;73814;-77
2023/06/03 11:37:41;;;;;;;11.50;3.80;;;;;;;33.16;37.18;100753.89;106280;1291;58240;-77
2023/06/03 11:40:09;;;;;;;6.90;3.70;;;;;;;32.82;38.13;100752.36;106247;1291;73573;-76
2023/06/03 11:42:48;;;;;;;12.20;3.70;;;;;;;32.40;38.79;100753.61;106252;1292;60956;-77
2023/06/03 11:45:21;;;;;;;10.20;2.90;;;;;;;32.25;39.56;100758.20;106331;1291;60560;-76
2023/06/03 11:47:54;;;;;;;7.60;3.80;;;;;;;32.16;39.40;100761.83;106896;1284;74271;-76